createdAt,value
2022-08-03T00:01:31.417Z,15.20
2022-08-03T00:03:58.267Z,18.10
2022-08-03T00:06:25.150Z,21.40
2022-08-03T00:08:52.214Z,23.40
2022-08-03T00:11:19.436Z,15.00
2022-08-03T00:13:46.712Z,15.80
2022-08-03T00:16:13.763Z,13.20
2022-08-03T00:18:40.933Z,15.10
2022-08-03T00:21:08.367Z,11.90
2022-08-03T00:23:52.858Z,15.80
2022-08-03T00:26:21.193Z,15.00
2022-08-03T00:28:48.684Z,19.20
2022-08-03T00:31:15.593Z,16.80
2022-08-03T00:33:59.442Z,19.80
2022-08-03T00:36:27.798Z,20.50
2022-08-03T00:38:55.600Z,16.70
2022-08-03T00:41:22.870Z,15.40
2022-08-03T00:43:50.010Z,19.10
2022-08-03T00:46:21.377Z,15.90
2022-08-03T00:48:50.451Z,16.30
2022-08-03T00:51:18.583Z,19.10
2022-08-03T00:53:46.166Z,13.70
2022-08-03T00:56:15.297Z,14.70
2022-08-03T00:58:45.099Z,17.30
2022-08-03T01:01:12.875Z,15.80
2022-08-03T01:03:40.339Z,14.70
2022-08-03T01:06:11.969Z,17.60
2022-08-03T01:09:10.277Z,16.10
2022-08-03T01:12:01.039Z,17.20
2022-08-03T01:14:44.364Z,19.50
2022-08-03T01:17:25.711Z,18.90
2022-08-03T01:20:10.239Z,17.20
2022-08-03T01:25:54.425Z,14.60
2022-08-03T01:28:28.539Z,15.60
2022-08-03T01:31:01.649Z,15.60
2022-08-03T01:33:50.528Z,15.20
2022-08-03T01:36:23.203Z,14.60
2022-08-03T01:38:55.337Z,17.20
2022-08-03T01:41:29.070Z,16.90
2022-08-03T01:44:28.150Z,15.80
2022-08-03T01:46:50.141Z,15.40
2022-08-03T01:49:18.345Z,14.70
2022-08-03T01:52:02.981Z,17.60
2022-08-03T01:54:41.912Z,19.30
2022-08-03T01:57:10.863Z,14.70
2022-08-03T01:59:40.328Z,14.50
2022-08-03T02:02:31.813Z,12.40
2022-08-03T02:04:57.900Z,15.20
2022-08-03T02:07:26.901Z,16.10
2022-08-03T02:09:55.711Z,15.00
2022-08-03T02:12:25.359Z,23.70
2022-08-03T02:14:53.980Z,18.00
2022-08-03T02:17:38.486Z,18.30
2022-08-03T02:20:09.984Z,15.50
2022-08-03T02:22:40.570Z,17.60
2022-08-03T02:25:10.450Z,19.20
2022-08-03T02:27:43.621Z,17.00
2022-08-03T02:30:12.696Z,17.60
2022-08-03T02:32:42.640Z,14.40
2022-08-03T02:35:13.582Z,19.80
2022-08-03T02:37:49.501Z,19.20
2022-08-03T02:40:19.401Z,17.30
2022-08-03T02:42:49.309Z,14.50
2022-08-03T02:45:20.001Z,14.70
2022-08-03T02:47:53.938Z,22.10
2022-08-03T02:50:23.488Z,21.00
2022-08-03T02:52:52.013Z,22.20
2022-08-03T02:55:21.716Z,17.80
2022-08-03T02:57:50.199Z,14.70
2022-08-03T03:00:19.504Z,15.80
2022-08-03T03:02:58.418Z,16.50
2022-08-03T03:05:52.665Z,15.20
2022-08-03T03:08:17.639Z,15.30
2022-08-03T03:10:46.777Z,14.50
2022-08-03T03:13:15.359Z,16.40
2022-08-03T03:15:45.008Z,17.60
2022-08-03T03:18:16.774Z,17.10
2022-08-03T03:23:14.039Z,13.50
2022-08-03T03:25:41.741Z,18.20
2022-08-03T03:28:11.682Z,14.70
2022-08-03T03:30:38.819Z,14.80
2022-08-03T03:33:05.954Z,14.10
2022-08-03T03:35:38.853Z,17.70
2022-08-03T03:38:07.419Z,15.90
2022-08-03T03:40:36.735Z,14.30
2022-08-03T03:43:07.508Z,15.10
2022-08-03T03:45:35.441Z,12.40
2022-08-03T03:48:05.048Z,13.40
2022-08-03T03:50:34.032Z,17.00
2022-08-03T03:53:02.216Z,18.50
2022-08-03T03:55:29.365Z,16.40
2022-08-03T03:57:56.581Z,17.80
2022-08-03T04:00:23.436Z,20.10
2022-08-03T04:02:50.267Z,23.40
2022-08-03T04:05:37.084Z,24.50
2022-08-03T04:08:30.434Z,19.80
2022-08-03T04:11:16.093Z,25.20
2022-08-03T04:13:55.383Z,18.90
2022-08-03T04:16:30.654Z,20.70
2022-08-03T04:19:09.534Z,20.50
2022-08-03T04:21:40.606Z,21.20
2022-08-03T04:24:10.963Z,19.70
2022-08-03T04:26:41.914Z,19.50
2022-08-03T04:29:11.096Z,25.30
2022-08-03T04:31:40.297Z,19.40
2022-08-03T04:34:07.915Z,18.90
2022-08-03T04:36:53.167Z,22.70
2022-08-03T04:39:26.610Z,21.30
2022-08-03T04:42:07.233Z,20.00
2022-08-03T04:44:45.318Z,19.90
2022-08-03T04:47:12.559Z,19.00
2022-08-03T04:49:40.694Z,22.70
2022-08-03T04:52:10.224Z,17.40
2022-08-03T04:54:50.317Z,14.70
2022-08-03T04:57:22.385Z,14.70
2022-08-03T05:00:01.401Z,15.20
2022-08-03T05:02:31.490Z,16.60
2022-08-03T05:04:59.150Z,13.20
2022-08-03T05:07:26.022Z,14.30
2022-08-03T05:09:57.599Z,14.30
2022-08-03T05:12:32.664Z,13.40
2022-08-03T05:15:00.888Z,13.50
2022-08-03T05:17:29.069Z,14.00
2022-08-03T05:19:56.567Z,14.60
2022-08-03T05:22:24.352Z,17.50
2022-08-03T05:24:51.407Z,17.30
2022-08-03T05:27:19.895Z,15.10
2022-08-03T05:29:47.879Z,15.40
2022-08-03T05:32:16.107Z,16.20
2022-08-03T05:34:43.804Z,18.70
2022-08-03T05:37:10.954Z,16.20
2022-08-03T05:39:38.320Z,17.40
2022-08-03T05:42:05.200Z,16.30
2022-08-03T05:44:32.287Z,15.90
2022-08-03T05:46:59.665Z,16.30
2022-08-03T05:49:26.625Z,18.30
2022-08-03T05:52:00.656Z,17.30
2022-08-03T05:54:55.998Z,14.80
2022-08-03T05:59:53.887Z,14.30
2022-08-03T06:02:27.433Z,12.90
2022-08-03T06:04:54.721Z,14.10
2022-08-03T06:07:21.870Z,13.10
2022-08-03T06:10:35.229Z,15.00
2022-08-03T06:12:36.429Z,16.50
2022-08-03T06:15:05.281Z,14.30
2022-08-03T06:17:37.374Z,14.60
2022-08-03T06:20:06.060Z,13.90
2022-08-03T06:22:32.909Z,15.10
2022-08-03T06:25:04.132Z,15.00
2022-08-03T06:27:36.534Z,15.70
2022-08-03T06:30:07.057Z,14.80
2022-08-03T06:32:34.024Z,13.60
2022-08-03T06:35:01.352Z,13.60
2022-08-03T06:37:28.947Z,13.10
2022-08-03T06:39:57.710Z,12.70
2022-08-03T06:42:24.702Z,12.40
2022-08-03T06:44:52.299Z,11.70
2022-08-03T06:47:19.142Z,12.30
2022-08-03T06:50:12.658Z,11.40
2022-08-03T06:52:37.507Z,12.40
2022-08-03T06:55:06.423Z,13.00
2022-08-03T06:57:33.479Z,13.90
2022-08-03T07:00:07.494Z,11.60
2022-08-03T07:02:40.057Z,11.50
2022-08-03T07:05:08.093Z,12.70
2022-08-03T07:07:35.092Z,11.60
2022-08-03T07:10:02.609Z,11.90
2022-08-03T07:12:31.033Z,11.70
2022-08-03T07:15:01.676Z,11.60
2022-08-03T07:17:31.701Z,11.00
2022-08-03T07:20:00.101Z,10.90
2022-08-03T07:22:27.341Z,10.40
2022-08-03T07:24:54.305Z,11.30
2022-08-03T07:27:23.667Z,11.90
2022-08-03T07:29:50.612Z,11.10
2022-08-03T07:32:17.677Z,15.20
2022-08-03T07:34:44.884Z,10.60
2022-08-03T07:37:11.885Z,10.30
2022-08-03T07:39:38.724Z,10.00
2022-08-03T07:42:05.783Z,10.40
2022-08-03T07:44:32.736Z,10.00
2022-08-03T07:47:00.099Z,9.00
2022-08-03T07:49:30.722Z,9.20
2022-08-03T07:52:13.494Z,9.30
2022-08-03T07:54:40.335Z,8.40
2022-08-03T07:57:07.138Z,8.30
2022-08-03T07:59:56.609Z,7.70
2022-08-03T08:02:22.278Z,7.80
2022-08-03T08:04:49.116Z,8.00
2022-08-03T08:07:16.362Z,7.80
2022-08-03T08:09:45.210Z,10.80
2022-08-03T08:12:15.564Z,7.60
2022-08-03T08:14:45.931Z,7.20
2022-08-03T08:17:13.502Z,6.00
2022-08-03T08:19:43.793Z,10.80
2022-08-03T08:22:22.404Z,7.50
2022-08-03T08:24:57.134Z,8.70
2022-08-03T08:27:24.013Z,7.20
2022-08-03T08:29:55.169Z,6.80
2022-08-03T08:32:23.389Z,6.90
2022-08-03T08:34:50.233Z,6.90
2022-08-03T08:37:17.232Z,7.40
2022-08-03T08:39:44.048Z,8.30
2022-08-03T08:42:11.003Z,8.10
2022-08-03T08:44:37.840Z,8.20
2022-08-03T08:47:04.919Z,8.30
2022-08-03T08:49:36.112Z,7.50
2022-08-03T08:52:25.017Z,7.70
2022-08-03T08:54:57.288Z,8.20
2022-08-03T08:57:42.271Z,9.00
2022-08-03T09:00:14.894Z,8.80
2022-08-03T09:02:44.131Z,8.80
2022-08-03T09:05:13.280Z,7.50
2022-08-03T09:07:41.378Z,8.60
2022-08-03T09:10:13.315Z,7.40
2022-08-03T09:12:46.142Z,7.90
2022-08-03T09:15:20.312Z,7.50
2022-08-03T09:17:51.063Z,7.80
2022-08-03T09:20:20.528Z,7.00
2022-08-03T09:23:19.010Z,7.10
2022-08-03T09:25:58.518Z,8.20
2022-08-03T09:29:00.140Z,6.70
2022-08-03T09:31:31.611Z,7.90
2022-08-03T09:34:01.406Z,6.80
2022-08-03T09:36:44.807Z,7.40
2022-08-03T09:39:13.994Z,6.90
2022-08-03T09:41:44.454Z,6.80
2022-08-03T09:44:24.694Z,7.70
2022-08-03T09:46:56.438Z,6.80
2022-08-03T09:49:24.559Z,5.80
2022-08-03T09:52:31.494Z,6.90
2022-08-03T09:54:39.741Z,8.50
2022-08-03T09:57:06.595Z,7.80
2022-08-03T09:59:35.025Z,6.60
2022-08-03T10:02:02.184Z,6.60
2022-08-03T10:04:30.125Z,10.20
2022-08-03T10:07:12.654Z,8.50
2022-08-03T10:09:54.428Z,7.60
2022-08-03T10:12:22.144Z,6.90
2022-08-03T10:14:49.226Z,7.00
2022-08-03T10:17:16.477Z,6.90
2022-08-03T10:19:43.650Z,7.60
2022-08-03T10:22:19.527Z,8.60
2022-08-03T10:24:54.256Z,7.50
2022-08-03T10:27:24.370Z,6.00
2022-08-03T10:29:55.364Z,5.30
2022-08-03T10:32:28.818Z,6.80
2022-08-03T10:35:19.730Z,6.20
2022-08-03T10:37:56.879Z,6.60
2022-08-03T10:40:47.605Z,6.60
2022-08-03T10:43:20.763Z,8.50
2022-08-03T10:45:47.891Z,7.70
2022-08-03T10:48:15.996Z,6.10
2022-08-03T10:50:44.778Z,7.00
2022-08-03T10:53:11.707Z,7.60
2022-08-03T10:56:00.403Z,7.70
2022-08-03T10:58:57.718Z,6.70
2022-08-03T11:01:58.254Z,6.80
2022-08-03T11:04:26.872Z,6.80
2022-08-03T11:07:18.442Z,5.80
2022-08-03T11:09:49.922Z,5.60
2022-08-03T11:12:33.248Z,6.40
2022-08-03T11:15:05.004Z,5.90
2022-08-03T11:17:33.919Z,6.70
2022-08-03T11:20:14.931Z,5.10
2022-08-03T11:22:51.234Z,5.10
2022-08-03T11:25:53.128Z,5.80
2022-08-03T11:28:28.746Z,5.10
2022-08-03T11:30:55.861Z,5.80
2022-08-03T11:33:31.230Z,5.60
2022-08-03T11:36:00.327Z,4.50
2022-08-03T11:38:27.345Z,5.10
2022-08-03T11:40:54.946Z,4.80
2022-08-03T11:43:26.754Z,5.30
2022-08-03T11:46:00.461Z,5.00
2022-08-03T11:48:34.156Z,6.30
2022-08-03T11:51:01.943Z,7.80
2022-08-03T11:53:29.338Z,5.30
2022-08-03T11:55:59.995Z,4.50
2022-08-03T11:59:10.698Z,4.60
2022-08-03T12:01:21.264Z,4.50
2022-08-03T12:03:50.327Z,4.60
2022-08-03T12:06:19.177Z,5.00
2022-08-03T12:08:46.772Z,6.30
2022-08-03T12:11:15.982Z,5.90
2022-08-03T12:14:36.707Z,4.40
2022-08-03T12:16:31.349Z,4.50
2022-08-03T12:19:00.797Z,6.30
2022-08-03T12:21:29.042Z,6.20
2022-08-03T12:24:00.673Z,4.90
2022-08-03T12:26:29.337Z,7.70
2022-08-03T12:28:56.349Z,5.40
2022-08-03T12:31:23.364Z,6.60
2022-08-03T12:34:08.400Z,5.90
2022-08-03T12:36:36.397Z,6.30
2022-08-03T12:39:08.232Z,6.40
2022-08-03T12:41:38.939Z,8.80
2022-08-03T12:44:08.582Z,5.20
2022-08-03T12:46:37.404Z,6.00
2022-08-03T12:49:15.676Z,5.60
2022-08-03T12:51:43.430Z,4.90
2022-08-03T12:54:16.765Z,4.80
2022-08-03T12:57:01.702Z,7.60
2022-08-03T12:59:34.878Z,5.90
2022-08-03T13:02:09.507Z,5.40
2022-08-03T13:04:37.092Z,4.30
2022-08-03T13:07:06.869Z,4.20
2022-08-03T13:09:43.766Z,4.80
2022-08-03T13:12:12.332Z,3.90
2022-08-03T13:14:39.333Z,4.90
2022-08-03T13:17:07.228Z,4.50
2022-08-03T13:19:36.463Z,6.10
2022-08-03T13:22:20.317Z,3.80
2022-08-03T13:24:50.131Z,5.90
2022-08-03T13:28:02.538Z,5.50
2022-08-03T13:30:06.303Z,4.20
2022-08-03T13:32:33.745Z,5.60
2022-08-03T13:35:02.617Z,4.70
2022-08-03T13:37:32.647Z,5.20
2022-08-03T13:40:04.492Z,5.20
2022-08-03T13:42:33.698Z,5.60
2022-08-03T13:45:01.457Z,5.20
2022-08-03T13:47:29.270Z,5.90
2022-08-03T13:50:01.468Z,7.00
2022-08-03T13:52:31.797Z,4.80
2022-08-03T13:54:58.984Z,4.70
2022-08-03T13:58:11.350Z,5.20
2022-08-03T14:00:13.404Z,6.40
2022-08-03T14:02:57.249Z,4.90
2022-08-03T14:05:30.387Z,4.90
2022-08-03T14:08:04.149Z,4.70
2022-08-03T14:10:33.654Z,5.00
2022-08-03T14:13:00.664Z,5.80
2022-08-03T14:15:28.788Z,5.10
2022-08-03T14:17:58.401Z,7.90
2022-08-03T14:20:36.699Z,6.10
2022-08-03T14:23:07.290Z,5.60
2022-08-03T14:25:43.678Z,5.90
2022-08-03T14:28:21.384Z,5.80
2022-08-03T14:30:48.782Z,5.00
2022-08-03T14:33:16.027Z,5.50
2022-08-03T14:35:43.371Z,5.10
2022-08-03T14:38:10.235Z,5.30
2022-08-03T14:40:37.077Z,7.00
2022-08-03T14:43:04.059Z,4.90
2022-08-03T14:45:31.305Z,5.70
2022-08-03T14:50:34.937Z,5.80
2022-08-03T14:50:51.833Z,5.10
2022-08-03T14:53:20.179Z,5.60
2022-08-03T14:55:51.514Z,6.50
2022-08-03T14:58:22.083Z,5.50
2022-08-03T15:00:50.881Z,5.60
2022-08-03T15:03:23.425Z,5.70
2022-08-03T15:05:53.799Z,5.60
2022-08-03T15:08:36.766Z,5.90
2022-08-03T15:11:03.781Z,5.40
2022-08-03T15:13:31.855Z,9.70
2022-08-03T15:15:58.762Z,5.70
2022-08-03T15:18:25.623Z,5.80
2022-08-03T15:20:52.403Z,7.40
2022-08-03T15:23:19.629Z,5.90
2022-08-03T15:26:04.089Z,5.40
2022-08-03T15:28:34.836Z,6.80
2022-08-03T15:31:05.681Z,5.60
2022-08-03T15:33:33.124Z,5.80
2022-08-03T15:36:02.465Z,5.40
2022-08-03T15:38:29.332Z,6.20
2022-08-03T15:40:56.272Z,6.40
2022-08-03T15:43:23.940Z,6.40
2022-08-03T15:46:12.838Z,6.00
2022-08-03T15:48:39.402Z,5.40
2022-08-03T15:51:06.992Z,8.40
2022-08-03T15:53:34.794Z,5.90
2022-08-03T15:56:06.342Z,5.90
2022-08-03T15:59:09.395Z,8.60
2022-08-03T16:01:25.451Z,5.60
2022-08-03T16:03:52.674Z,5.80
2022-08-03T16:06:29.875Z,5.50
2022-08-03T16:09:01.833Z,5.80
2022-08-03T16:11:28.690Z,7.70
2022-08-03T16:14:11.924Z,5.40
2022-08-03T16:16:42.307Z,5.80
2022-08-03T16:19:09.358Z,5.90
2022-08-03T16:21:42.048Z,6.00
2022-08-03T16:24:17.469Z,5.80
2022-08-03T16:26:50.055Z,5.60
2022-08-03T16:29:23.653Z,5.30
2022-08-03T16:31:51.668Z,5.60
2022-08-03T16:34:19.092Z,8.10
2022-08-03T16:36:45.975Z,5.90
2022-08-03T16:39:12.931Z,5.70
2022-08-03T16:41:54.303Z,6.70
2022-08-03T16:44:27.518Z,6.60
2022-08-03T16:46:54.673Z,5.70
2022-08-03T16:49:53.287Z,7.20
2022-08-03T16:52:08.337Z,6.80
2022-08-03T16:54:35.275Z,10.00
2022-08-03T16:57:02.224Z,5.60
2022-08-03T16:59:36.069Z,7.50
2022-08-03T17:02:09.911Z,5.70
2022-08-03T17:04:37.189Z,5.60
2022-08-03T17:07:08.814Z,9.00
2022-08-03T17:09:38.300Z,6.20
2022-08-03T17:12:07.588Z,6.60
2022-08-03T17:14:38.592Z,6.20
2022-08-03T17:17:16.310Z,7.60
2022-08-03T17:19:47.250Z,6.60
2022-08-03T17:22:19.111Z,6.40
2022-08-03T17:24:49.972Z,6.40
2022-08-03T17:28:50.422Z,6.30
2022-08-03T17:30:15.274Z,6.40
2022-08-03T17:32:57.341Z,12.80
2022-08-03T17:35:36.479Z,10.10
2022-08-03T17:38:11.904Z,6.70
2022-08-03T17:40:43.094Z,8.80
2022-08-03T17:44:16.026Z,6.80
2022-08-03T17:46:10.562Z,6.70
2022-08-03T17:48:41.467Z,8.70
2022-08-03T17:51:17.279Z,8.80
2022-08-03T17:53:51.151Z,7.60
2022-08-03T17:56:42.627Z,8.10
2022-08-03T17:59:52.240Z,8.40
2022-08-03T18:02:47.820Z,7.60
2022-08-03T18:05:17.727Z,8.20
2022-08-03T18:07:47.902Z,11.40
2022-08-03T18:10:23.107Z,8.30
2022-08-03T18:12:54.933Z,14.60
2022-08-03T18:15:27.236Z,11.40
2022-08-03T18:18:02.675Z,11.70
2022-08-03T18:20:40.977Z,10.00
2022-08-03T18:23:11.436Z,15.00
2022-08-03T18:25:58.222Z,12.00
2022-08-03T18:30:55.299Z,11.50
2022-08-03T18:34:19.924Z,9.70
2022-08-03T18:36:21.553Z,12.00
2022-08-03T18:38:51.834Z,8.90
2022-08-03T18:41:33.694Z,11.00
2022-08-03T18:44:08.283Z,11.50
2022-08-03T18:47:06.841Z,7.90
2022-08-03T18:50:00.904Z,9.70
2022-08-03T18:52:29.410Z,8.30
2022-08-03T18:55:19.894Z,10.70
2022-08-03T18:57:59.739Z,10.10
2022-08-03T19:00:42.344Z,11.00
2022-08-03T19:03:24.981Z,14.30
2022-08-03T19:06:16.028Z,10.20
2022-08-03T19:08:50.321Z,10.10
2022-08-03T19:11:28.025Z,11.50
2022-08-03T19:13:59.693Z,9.60
2022-08-03T19:16:34.764Z,13.10
2022-08-03T19:19:02.439Z,13.90
2022-08-03T19:21:31.378Z,13.30
2022-08-03T19:24:09.513Z,11.40
2022-08-03T19:26:39.663Z,10.70
2022-08-03T19:29:14.900Z,13.80
2022-08-03T19:31:54.429Z,13.00
2022-08-03T19:34:30.561Z,11.50
2022-08-03T19:36:58.851Z,14.60
2022-08-03T19:39:25.926Z,20.80
2022-08-03T19:41:58.466Z,18.30
2022-08-03T19:44:37.938Z,14.40
2022-08-03T19:47:11.368Z,18.90
2022-08-03T19:50:04.827Z,15.80
2022-08-03T19:52:38.035Z,13.70
2022-08-03T19:55:12.139Z,14.70
2022-08-03T19:57:43.262Z,15.60
2022-08-03T20:00:13.998Z,18.50
2022-08-03T20:02:41.480Z,16.40
2022-08-03T20:05:14.909Z,12.70
2022-08-03T20:07:47.777Z,15.90
2022-08-03T20:10:17.466Z,12.40
2022-08-03T20:12:47.542Z,14.80
2022-08-03T20:15:18.061Z,14.70
2022-08-03T20:17:56.771Z,16.60
2022-08-03T20:20:33.424Z,18.50
2022-08-03T20:23:13.838Z,16.20
2022-08-03T20:25:48.751Z,14.90
2022-08-03T20:28:30.815Z,18.20
2022-08-03T20:30:59.870Z,20.60
2022-08-03T20:33:27.885Z,24.30
2022-08-03T20:36:15.907Z,17.20
2022-08-03T20:38:47.125Z,19.50
2022-08-03T20:41:15.830Z,19.50
2022-08-03T20:43:43.003Z,17.90
2022-08-03T20:46:29.535Z,19.70
2022-08-03T20:48:58.832Z,19.20
2022-08-03T20:51:50.678Z,20.80
2022-08-03T20:54:22.792Z,23.10
2022-08-03T20:57:03.567Z,22.70
2022-08-03T20:59:47.013Z,19.00
2022-08-03T21:02:28.732Z,22.20
2022-08-03T21:05:03.526Z,18.90
2022-08-03T21:08:04.179Z,22.00
2022-08-03T21:10:31.235Z,25.90
2022-08-03T21:13:17.844Z,25.70
2022-08-03T21:16:06.861Z,29.30
2022-08-03T21:18:41.078Z,31.00
2022-08-03T21:21:10.294Z,30.90
2022-08-03T21:23:48.829Z,27.30
2022-08-03T21:26:18.955Z,24.90
2022-08-03T21:28:47.813Z,26.80
2022-08-03T21:31:24.660Z,26.00
2022-08-03T21:33:58.001Z,33.50
2022-08-03T21:36:27.898Z,28.00
2022-08-03T21:38:57.407Z,23.30
2022-08-03T21:41:29.138Z,25.00
2022-08-03T21:43:56.911Z,22.90
2022-08-03T21:46:26.624Z,22.70
2022-08-03T21:49:51.994Z,27.00
2022-08-03T21:51:49.254Z,26.70
2022-08-03T21:54:17.968Z,20.40
2022-08-03T21:56:48.552Z,23.20
2022-08-03T21:59:17.736Z,20.40
2022-08-03T22:01:49.193Z,18.50
2022-08-03T22:04:50.315Z,20.90
2022-08-03T22:07:08.139Z,23.20
2022-08-03T22:09:36.538Z,20.00
2022-08-03T22:12:04.135Z,21.30
2022-08-03T22:14:34.530Z,18.30
2022-08-03T22:17:06.313Z,22.60
2022-08-03T22:19:34.279Z,21.50
2022-08-03T22:22:06.205Z,18.80
2022-08-03T22:24:36.664Z,20.50
2022-08-03T22:27:19.996Z,20.00
2022-08-03T22:29:47.262Z,19.90
2022-08-03T22:32:14.160Z,18.60
2022-08-03T22:34:46.343Z,17.40
2022-08-03T22:37:16.652Z,18.80
2022-08-03T22:39:44.712Z,19.60
2022-08-03T22:42:12.063Z,17.10
2022-08-03T22:44:39.851Z,18.10
2022-08-03T22:47:07.313Z,17.10
2022-08-03T22:49:35.666Z,18.70
2022-08-03T22:52:02.709Z,16.80
2022-08-03T22:54:32.345Z,14.90
2022-08-03T22:56:59.836Z,14.40
2022-08-03T22:59:39.161Z,15.30
2022-08-03T23:02:20.918Z,17.70
2022-08-03T23:04:52.519Z,16.50
2022-08-03T23:07:27.645Z,16.00
2022-08-03T23:09:56.330Z,15.30
2022-08-03T23:12:23.685Z,14.70
2022-08-03T23:14:54.780Z,12.80
2022-08-03T23:17:24.412Z,15.30
2022-08-03T23:19:53.677Z,11.30
2022-08-03T23:22:29.572Z,13.30
2022-08-03T23:24:59.564Z,12.90
2022-08-03T23:27:27.560Z,14.60
2022-08-03T23:29:56.831Z,17.60
2022-08-03T23:32:26.460Z,12.20
2022-08-03T23:35:12.465Z,11.90
2022-08-03T23:38:04.277Z,11.20
2022-08-03T23:40:30.984Z,15.80
2022-08-03T23:42:58.492Z,12.70
2022-08-03T23:45:27.616Z,15.20
2022-08-03T23:47:55.023Z,13.30
2022-08-03T23:50:21.911Z,17.60
2022-08-03T23:52:50.435Z,13.40
2022-08-03T23:55:39.679Z,12.40
2022-08-03T23:58:12.942Z,12.70
